Ana Sayfa
METAR-TAF:

METAR-TAF

Havaalanları :

Atoka Municipal Airport

Atoka, Oklahoma, Amerika Birleşik Devletleri

Enlem: 34-23-54N, Boylam: 096-08-53W, yükseklik: 180 m

Güncel hava durumu gözlemi

Rapor saat 15:50 UTC de 29 dakika önce yapıldı.
Sakin rüzgar
Sıcaklık 31°C
Nem 52%
Basınç 1019 hPa
Görüş mesafesi: 16.1 km
Açık gökyüzü

METAR: KAQR 161550Z AUTO 00000KT 10SM CLR 31/20 A3010 RMK AO2

Saat: 12:19 (16:19 UTC)


TAF: eksik

4.000'den fazla havaalanı için hava durumu gözlemleri ve tahminleri (METAR ve TAF raporları).

Kullanılabilir istasyonlar harita üzerinde sarı ve kırmızı noktalarla gösterilir.

İstasyonun adını görmek için fareyi noktanın üzerinde gezdirin.

Sonrasında hava gözlem ve tahminlerini görmek için tıklayın.

Haritayı değiştirmek için: yaklaştırmak için siyah artı işaretli yeşil düğmeye ve uzaklaştırmak için de eksi işaretli düğmeye hızla tıklayın; bitişik haritalar için yeşil okları kullanın.


METAR-TAF: